Time;durP1;ratioP1;P1;durP2;ratioP2;P2;SDS_P1;SDS_P2;PMS_P1;PMS_P2;Temp;Humidity;BMP_temperature;BMP_pressure;BME280_temperature;BME280_humidity;BME280_pressure;Samples;Min_cycle;Max_cycle;Signal;HPM_P1;HPM_P2
2022/06/05 00:02:01;;;;;;;9.85;8.93;;;;;;;;;;5055201;28;20450;-72
2022/06/05 00:04:41;;;;;;;8.77;7.95;;;;;;;;;;5055923;28;20021;-72
2022/06/05 00:07:06;;;;;;;9.05;8.15;;;;;;;;;;5055491;28;20100;-72
2022/06/05 00:09:50;;;;;;;7.73;7.03;;;;;;;;;;5055497;28;20029;-71
2022/06/05 00:12:18;;;;;;;8.77;7.93;;;;;;;;;;5055228;28;20120;-72
2022/06/05 00:14:44;;;;;;;9.02;8.23;;;;;;;;;;5055359;28;20021;-72
2022/06/05 00:17:11;;;;;;;11.10;8.85;;;;;;;;;;5055135;28;20032;-72
2022/06/05 00:19:38;;;;;;;8.32;7.65;;;;;;;;;;5055528;28;20044;-71
2022/06/05 00:22:03;;;;;;;12.80;9.57;;;;;;;;;;5054948;28;20060;-71
2022/06/05 00:24:29;;;;;;;11.00;9.63;;;;;;;;;;5054873;28;20028;-71
2022/06/05 00:26:59;;;;;;;10.50;9.50;;;;;;;;;;5055179;28;20036;-72
2022/06/05 00:29:24;;;;;;;11.55;8.52;;;;;;;;;;5054949;28;20096;-71
2022/06/05 00:32:09;;;;;;;13.32;9.60;;;;;;;;;;5054170;28;20125;-71
2022/06/05 00:34:34;;;;;;;15.52;9.90;;;;;;;;;;5054961;28;20460;-71
2022/06/05 00:37:23;;;;;;;13.47;10.37;;;;;;;;;;5054755;28;20021;-71
2022/06/05 00:39:59;;;;;;;11.75;9.10;;;;;;;;;;5055169;28;20611;-71
2022/06/05 00:42:25;;;;;;;8.68;7.88;;;;;;;;;;5055124;28;20025;-71
2022/06/05 00:44:54;;;;;;;7.75;7.13;;;;;;;;;;5054508;28;20021;-71
2022/06/05 00:47:21;;;;;;;7.22;6.60;;;;;;;;;;5054405;28;20029;-71
2022/06/05 00:49:46;;;;;;;7.25;6.72;;;;;;;;;;5054515;28;20020;-71
2022/06/05 00:52:13;;;;;;;6.88;6.38;;;;;;;;;;5054399;28;20437;-71
2022/06/05 00:54:38;;;;;;;9.23;8.27;;;;;;;;;;5054577;28;20049;-71
2022/06/05 00:57:06;;;;;;;9.15;8.35;;;;;;;;;;5054242;28;20122;-71
2022/06/05 00:59:31;;;;;;;10.13;9.10;;;;;;;;;;5054154;28;20055;-71
2022/06/05 01:01:56;;;;;;;12.85;10.82;;;;;;;;;;5054459;28;20028;-71
2022/06/05 01:04:22;;;;;;;10.63;9.15;;;;;;;;;;5053657;28;20029;-71
2022/06/05 01:06:47;;;;;;;12.80;8.95;;;;;;;;;;5054584;28;20029;-71
2022/06/05 01:09:12;;;;;;;13.32;9.63;;;;;;;;;;5054357;28;20017;-71
2022/06/05 01:11:39;;;;;;;10.32;9.25;;;;;;;;;;5054112;28;20040;-71
2022/06/05 01:14:20;;;;;;;10.70;9.57;;;;;;;;;;5053096;28;20074;-72
2022/06/05 01:16:59;;;;;;;10.77;9.68;;;;;;;;;;5054260;28;20103;-71
2022/06/05 01:19:38;;;;;;;14.10;10.55;;;;;;;;;;5053925;28;20095;-72
2022/06/05 01:22:26;;;;;;;10.13;9.13;;;;;;;;;;5053543;28;20452;-71
2022/06/05 01:25:10;;;;;;;10.65;9.23;;;;;;;;;;5043819;28;20028;-71
2022/06/05 01:27:38;;;;;;;9.63;8.48;;;;;;;;;;5053776;28;20493;-72
2022/06/05 01:30:08;;;;;;;15.77;11.50;;;;;;;;;;5052133;28;20535;-72
2022/06/05 01:32:41;;;;;;;17.48;12.20;;;;;;;;;;5054363;28;20029;-72
2022/06/05 01:35:17;;;;;;;15.15;12.57;;;;;;;;;;5053276;28;20028;-72
2022/06/05 01:37:50;;;;;;;17.88;12.85;;;;;;;;;;5053232;28;20036;-73
2022/06/05 01:40:22;;;;;;;15.95;12.48;;;;;;;;;;5053946;28;20533;-73
2022/06/05 01:42:55;;;;;;;16.35;12.65;;;;;;;;;;5054064;28;20464;-73
2022/06/05 01:45:23;;;;;;;14.80;12.15;;;;;;;;;;5053416;28;20040;-72
2022/06/05 01:47:50;;;;;;;12.98;11.38;;;;;;;;;;5053660;28;20033;-71
2022/06/05 01:50:19;;;;;;;15.57;11.80;;;;;;;;;;5054247;28;20025;-71
2022/06/05 01:52:59;;;;;;;12.85;11.23;;;;;;;;;;5053574;28;20442;-72
2022/06/05 01:55:38;;;;;;;10.25;9.25;;;;;;;;;;5053700;28;20071;-72
2022/06/05 01:58:06;;;;;;;10.68;9.30;;;;;;;;;;5053257;28;20041;-72
2022/06/05 02:00:31;;;;;;;9.05;8.20;;;;;;;;;;5053710;28;20109;-72
2022/06/05 02:02:57;;;;;;;9.10;8.32;;;;;;;;;;5053379;28;20057;-72
2022/06/05 02:05:24;;;;;;;9.52;8.63;;;;;;;;;;5053679;28;20099;-72
2022/06/05 02:07:54;;;;;;;9.77;8.77;;;;;;;;;;5053318;28;20048;-72
2022/06/05 02:10:49;;;;;;;9.93;8.95;;;;;;;;;;5053633;28;20036;-72
2022/06/05 02:13:14;;;;;;;9.82;8.82;;;;;;;;;;5043243;28;20078;-71
2022/06/05 02:15:40;;;;;;;10.57;9.13;;;;;;;;;;5053307;28;20112;-72
2022/06/05 02:18:05;;;;;;;10.52;9.52;;;;;;;;;;5053220;28;20037;-71
2022/06/05 02:20:31;;;;;;;10.10;9.20;;;;;;;;;;5053028;28;20025;-71
2022/06/05 02:22:56;;;;;;;10.25;9.30;;;;;;;;;;5053521;28;20024;-72
2022/06/05 02:25:24;;;;;;;9.05;8.07;;;;;;;;;;5053132;28;20017;-72
2022/06/05 02:27:50;;;;;;;9.95;8.90;;;;;;;;;;5053389;28;20119;-72
2022/06/05 02:30:16;;;;;;;8.80;8.00;;;;;;;;;;5053310;28;20017;-72
2022/06/05 02:32:45;;;;;;;9.48;8.57;;;;;;;;;;5053139;28;20109;-72
2022/06/05 02:35:18;;;;;;;11.07;10.07;;;;;;;;;;5053378;28;20021;-72
2022/06/05 02:37:54;;;;;;;10.32;9.10;;;;;;;;;;5053788;28;20083;-72
2022/06/05 02:40:30;;;;;;;10.02;9.02;;;;;;;;;;5053597;28;20037;-71
2022/06/05 02:43:15;;;;;;;9.50;8.70;;;;;;;;;;5053384;28;20037;-71
2022/06/05 02:45:51;;;;;;;8.68;7.88;;;;;;;;;;5053080;28;20033;-71
2022/06/05 02:48:36;;;;;;;7.95;7.30;;;;;;;;;;5053552;28;20452;-71
2022/06/05 02:51:13;;;;;;;7.00;6.40;;;;;;;;;;5053465;28;20112;-71
2022/06/05 02:53:51;;;;;;;6.13;5.72;;;;;;;;;;5053213;28;20037;-71
2022/06/05 02:56:17;;;;;;;7.20;6.60;;;;;;;;;;5056308;28;20035;-71
2022/06/05 02:58:43;;;;;;;6.38;5.88;;;;;;;;;;5056378;28;20119;-71
2022/06/05 03:03:53;;;;;;;6.60;6.10;;;;;;;;;;5056291;28;20025;-73
2022/06/05 03:06:18;;;;;;;7.03;6.53;;;;;;;;;;5056390;28;20521;-72
2022/06/05 03:08:44;;;;;;;6.82;6.35;;;;;;;;;;5056364;28;20754;-72
2022/06/05 03:11:09;;;;;;;6.85;6.35;;;;;;;;;;5056629;28;20016;-72
2022/06/05 03:13:34;;;;;;;6.32;5.82;;;;;;;;;;5056565;28;20057;-73
2022/06/05 03:16:00;;;;;;;5.85;5.45;;;;;;;;;;5055934;28;20115;-73
2022/06/05 03:18:25;;;;;;;6.18;5.78;;;;;;;;;;5055395;28;20036;-73
2022/06/05 03:20:54;;;;;;;5.15;4.85;;;;;;;;;;5056444;28;20025;-72
2022/06/05 03:23:20;;;;;;;6.50;6.07;;;;;;;;;;5055146;28;20502;-72
2022/06/05 03:25:45;;;;;;;6.33;5.87;;;;;;;;;;5055373;28;20029;-71
2022/06/05 03:28:10;;;;;;;7.22;6.70;;;;;;;;;;5055998;28;20298;-71
2022/06/05 03:30:37;;;;;;;6.00;5.50;;;;;;;;;;5056164;28;20017;-71
2022/06/05 03:33:03;;;;;;;6.97;6.53;;;;;;;;;;5055670;28;20021;-72
2022/06/05 03:35:28;;;;;;;7.43;6.93;;;;;;;;;;5056416;28;20031;-71
2022/06/05 03:37:53;;;;;;;7.45;6.95;;;;;;;;;;5055741;28;20037;-71
2022/06/05 03:40:19;;;;;;;7.55;6.95;;;;;;;;;;5056024;28;20028;-71
2022/06/05 03:42:44;;;;;;;5.97;5.57;;;;;;;;;;5055445;28;20036;-72
2022/06/05 03:45:13;;;;;;;6.93;6.47;;;;;;;;;;5056095;28;20025;-71
2022/06/05 03:47:39;;;;;;;6.00;5.60;;;;;;;;;;5055272;28;20382;-72
2022/06/05 03:50:06;;;;;;;6.40;5.90;;;;;;;;;;5055606;28;20108;-71
2022/06/05 03:52:31;;;;;;;7.63;7.03;;;;;;;;;;5056234;28;20017;-71
2022/06/05 03:54:57;;;;;;;7.38;6.78;;;;;;;;;;5055737;28;20096;-71
2022/06/05 03:57:22;;;;;;;8.15;7.18;;;;;;;;;;5055502;28;20029;-71
2022/06/05 03:59:48;;;;;;;8.83;8.10;;;;;;;;;;5055939;28;20435;-71
2022/06/05 04:02:14;;;;;;;7.85;7.22;;;;;;;;;;5055279;28;20754;-71
2022/06/05 04:04:39;;;;;;;9.88;8.98;;;;;;;;;;5054699;28;20029;-71
2022/06/05 04:07:04;;;;;;;11.05;9.88;;;;;;;;;;5054824;28;20132;-71
2022/06/05 04:09:29;;;;;;;15.55;10.00;;;;;;;;;;5055753;28;20017;-70
2022/06/05 04:11:56;;;;;;;11.75;8.50;;;;;;;;;;5055077;28;20029;-70
2022/06/05 04:14:21;;;;;;;8.27;7.57;;;;;;;;;;5055152;28;20515;-71
2022/06/05 04:16:46;;;;;;;8.93;8.00;;;;;;;;;;5055344;28;20083;-72
2022/06/05 04:19:12;;;;;;;10.55;9.65;;;;;;;;;;5054280;28;20036;-72
2022/06/05 04:21:39;;;;;;;10.18;9.23;;;;;;;;;;5054803;28;20383;-72
2022/06/05 04:24:05;;;;;;;9.57;8.70;;;;;;;;;;5054652;28;20016;-72
2022/06/05 04:26:33;;;;;;;11.00;9.90;;;;;;;;;;5054649;28;20352;-72
2022/06/05 04:28:58;;;;;;;9.88;8.90;;;;;;;;;;5054556;28;20482;-71
2022/06/05 04:31:23;;;;;;;9.32;8.50;;;;;;;;;;5054629;28;20108;-71
2022/06/05 04:33:49;;;;;;;9.13;8.33;;;;;;;;;;5054473;28;20040;-72
2022/06/05 04:36:15;;;;;;;10.55;9.45;;;;;;;;;;5054392;28;20263;-71
2022/06/05 04:38:41;;;;;;;11.23;10.10;;;;;;;;;;5054303;28;20028;-72
2022/06/05 04:41:07;;;;;;;11.65;10.02;;;;;;;;;;5053153;28;20651;-71
2022/06/05 04:43:33;;;;;;;11.55;10.43;;;;;;;;;;5053547;28;20048;-71
2022/06/05 04:45:58;;;;;;;11.85;10.75;;;;;;;;;;5053603;28;20031;-71
2022/06/05 04:48:23;;;;;;;11.73;10.27;;;;;;;;;;5053707;28;20078;-71
2022/06/05 04:50:49;;;;;;;9.82;8.85;;;;;;;;;;5054163;28;20108;-70
2022/06/05 04:53:14;;;;;;;10.53;9.43;;;;;;;;;;5054286;28;20036;-71
2022/06/05 04:55:40;;;;;;;11.35;10.25;;;;;;;;;;5054077;28;20275;-71
2022/06/05 04:58:05;;;;;;;11.05;9.82;;;;;;;;;;5053771;28;20384;-71
2022/06/05 05:00:31;;;;;;;9.70;8.90;;;;;;;;;;5053971;28;20033;-71
2022/06/05 05:02:56;;;;;;;8.25;7.55;;;;;;;;;;5054065;28;20037;-72
2022/06/05 05:05:21;;;;;;;7.25;6.65;;;;;;;;;;5053970;28;20118;-72
2022/06/05 05:07:47;;;;;;;6.95;6.38;;;;;;;;;;5054031;28;20032;-72
2022/06/05 05:10:12;;;;;;;8.45;7.60;;;;;;;;;;5053979;28;20020;-72
2022/06/05 05:12:39;;;;;;;8.38;7.57;;;;;;;;;;5054824;28;20100;-72
2022/06/05 05:15:05;;;;;;;8.98;8.27;;;;;;;;;;5054066;28;20521;-71
2022/06/05 05:21:07;;;;;;;8.45;7.68;;;;;;;;;;5053954;28;20091;-71
2022/06/05 05:27:07;;;;;;;7.68;6.60;;;;;;;;;;5054047;28;20047;-71
2022/06/05 05:33:08;;;;;;;7.20;6.60;;;;;;;;;;5053798;28;20040;-71
2022/06/05 05:45:59;;;;;;;8.82;8.02;;;;;;;;;;5053852;28;20028;-71
2022/06/05 05:51:59;;;;;;;7.65;7.05;;;;;;;;;;5053814;28;20466;-71
2022/06/05 06:08:39;;;;;;;8.23;7.38;;;;;;;;;;5053422;28;20386;-73
2022/06/05 06:14:40;;;;;;;7.82;7.22;;;;;;;;;;5053613;28;20517;-73
2022/06/05 06:20:41;;;;;;;6.82;6.22;;;;;;;;;;5053518;28;20434;-73
2022/06/05 06:26:41;;;;;;;7.47;6.97;;;;;;;;;;5053487;28;20086;-73
2022/06/05 06:32:43;;;;;;;6.68;6.18;;;;;;;;;;5057322;28;20032;-74
2022/06/05 06:38:44;;;;;;;7.53;6.88;;;;;;;;;;5057034;28;20035;-77
2022/06/05 06:44:44;;;;;;;7.78;7.07;;;;;;;;;;5057083;28;20051;-75
2022/06/05 06:50:45;;;;;;;6.93;6.32;;;;;;;;;;5056997;28;20375;-76
2022/06/05 06:56:47;;;;;;;7.63;6.93;;;;;;;;;;5056579;28;20135;-78
2022/06/05 06:59:13;;;;;;;6.50;5.90;;;;;;;;;;5056535;28;20118;-77
2022/06/05 07:01:39;;;;;;;6.72;6.32;;;;;;;;;;5056794;28;20418;-77
2022/06/05 07:04:04;;;;;;;7.28;6.68;;;;;;;;;;5056542;28;20041;-77
2022/06/05 07:06:36;;;;;;;6.00;5.50;;;;;;;;;;5057135;28;20079;-76
2022/06/05 07:09:02;;;;;;;6.00;5.50;;;;;;;;;;5056212;28;20087;-76
2022/06/05 07:11:33;;;;;;;6.45;5.97;;;;;;;;;;5056951;28;20021;-76
2022/06/05 07:13:59;;;;;;;6.38;5.82;;;;;;;;;;5056901;28;20082;-76
2022/06/05 07:16:24;;;;;;;5.93;5.30;;;;;;;;;;5056891;28;20017;-76
2022/06/05 07:18:51;;;;;;;6.20;5.72;;;;;;;;;;5056588;28;20463;-76
2022/06/05 07:21:21;;;;;;;5.68;5.28;;;;;;;;;;5056440;28;20021;-76
2022/06/05 07:23:46;;;;;;;6.38;5.95;;;;;;;;;;5056443;28;20032;-76
2022/06/05 07:29:46;;;;;;;5.22;4.93;;;;;;;;;;5056292;28;20040;-76
2022/06/05 07:35:54;;;;;;;6.32;4.57;;;;;;;;;;5056179;28;20514;-76
2022/06/05 07:38:26;;;;;;;4.88;4.47;;;;;;;;;;5055777;28;20052;-76
2022/06/05 07:40:52;;;;;;;4.53;4.22;;;;;;;;;;5055991;28;20036;-76
2022/06/05 07:43:21;;;;;;;4.30;4.10;;;;;;;;;;5055819;28;20035;-77
2022/06/05 07:45:46;;;;;;;4.40;4.10;;;;;;;;;;5055981;28;20036;-76
2022/06/05 07:48:21;;;;;;;4.30;3.90;;;;;;;;;;5056019;28;20025;-76
2022/06/05 07:57:01;;;;;;;4.13;3.75;;;;;;;;;;5055745;28;20115;-76
2022/06/05 08:07:30;;;;;;;3.80;3.50;;;;;;;;;;5055544;28;20457;-76
2022/06/05 08:13:31;;;;;;;3.17;2.95;;;;;;;;;;5055431;28;20028;-76
2022/06/05 08:19:31;;;;;;;3.67;3.47;;;;;;;;;;5055299;28;20032;-77
2022/06/05 08:25:32;;;;;;;3.75;3.55;;;;;;;;;;5055232;28;20475;-76
2022/06/05 08:31:33;;;;;;;3.50;3.30;;;;;;;;;;5055070;28;20071;-77
2022/06/05 08:44:38;;;;;;;4.03;3.63;;;;;;;;;;5054875;28;20565;-76
2022/06/05 08:50:43;;;;;;;14.05;12.93;;;;;;;;;;5054749;28;20032;-76
2022/06/05 08:56:45;;;;;;;4.15;3.75;;;;;;;;;;5054393;28;20074;-76
2022/06/05 09:06:25;;;;;;;3.50;3.20;;;;;;;;;;5054692;28;20027;-76
2022/06/05 09:12:29;;;;;;;4.05;3.85;;;;;;;;;;5054378;28;20024;-76
2022/06/05 09:18:35;;;;;;;3.50;3.30;;;;;;;;;;5054263;28;20035;-76
2022/06/05 09:24:53;;;;;;;8.23;7.53;;;;;;;;;;5054156;28;20117;-76
2022/06/05 09:30:57;;;;;;;14.73;13.30;;;;;;;;;;5053846;28;20043;-76
2022/06/05 09:37:00;;;;;;;13.65;12.38;;;;;;;;;;5053995;28;20028;-76
2022/06/05 09:43:20;;;;;;;3.67;3.38;;;;;;;;;;5053897;28;20112;-76
2022/06/05 09:49:38;;;;;;;4.40;4.03;;;;;;;;;;5053540;28;20063;-76
2022/06/05 09:55:44;;;;;;;3.10;3.00;;;;;;;;;;5053823;28;20028;-76
2022/06/05 10:12:27;;;;;;;6.28;5.85;;;;;;;;;;5057422;28;20024;-77
2022/06/05 10:18:33;;;;;;;4.57;4.20;;;;;;;;;;5057606;28;20097;-76
2022/06/05 10:24:33;;;;;;;3.17;3.08;;;;;;;;;;5057510;28;20032;-76
2022/06/05 10:34:21;;;;;;;12.63;9.60;;;;;;;;;;5075486;28;20035;-76
2022/06/05 10:40:29;;;;;;;4.03;3.80;;;;;;;;;;5075138;28;20551;-76
2022/06/05 10:54:45;;;;;;;4.63;4.22;;;;;;;;;;5074825;28;20036;-77
2022/06/05 11:00:56;;;;;;;6.32;5.32;;;;;;;;;;5074805;28;20019;-76
2022/06/05 11:18:22;;;;;;;13.32;9.95;;;;;;;;;;5056569;28;20543;-77
2022/06/05 11:24:25;;;;;;;16.42;10.65;;;;;;;;;;5056386;28;20059;-77
2022/06/05 11:30:32;;;;;;;3.67;3.42;;;;;;;;;;5056586;28;20079;-76
2022/06/05 11:36:48;;;;;;;6.53;4.38;;;;;;;;;;5056201;28;20384;-76
2022/06/05 11:43:07;;;;;;;3.47;3.28;;;;;;;;;;5056097;28;20577;-76
2022/06/05 11:49:12;;;;;;;3.53;3.33;;;;;;;;;;5055691;28;20422;-76
2022/06/05 11:55:13;;;;;;;2.78;2.63;;;;;;;;;;5055823;28;20183;-76
2022/06/05 12:01:16;;;;;;;5.10;4.80;;;;;;;;;;5055702;28;20024;-76
2022/06/05 12:15:10;;;;;;;5.20;4.18;;;;;;;;;;5075512;28;20031;-76
2022/06/05 12:21:15;;;;;;;3.42;3.20;;;;;;;;;;5075080;28;20206;-76
2022/06/05 12:27:17;;;;;;;3.30;3.10;;;;;;;;;;5073813;28;20035;-76
2022/06/05 12:33:24;;;;;;;3.80;3.60;;;;;;;;;;5075076;28;20497;-76
2022/06/05 12:39:31;;;;;;;3.30;3.00;;;;;;;;;;5075012;28;20039;-76
2022/06/05 12:45:32;;;;;;;3.30;3.00;;;;;;;;;;5074848;28;20028;-76
2022/06/05 12:51:33;;;;;;;3.25;3.05;;;;;;;;;;5074722;28;20027;-76
2022/06/05 12:57:39;;;;;;;3.15;2.95;;;;;;;;;;5074607;28;20593;-76
2022/06/05 13:03:45;;;;;;;3.50;3.30;;;;;;;;;;5074732;28;20481;-76
2022/06/05 13:09:52;;;;;;;3.60;3.10;;;;;;;;;;5074420;28;20079;-76
2022/06/05 13:15:54;;;;;;;3.00;2.80;;;;;;;;;;5073804;28;20486;-76
2022/06/05 13:18:19;;;;;;;3.53;2.85;;;;;;;;;;5074489;28;20044;-76
2022/06/05 13:24:25;;;;;;;3.10;2.90;;;;;;;;;;5074286;28;20074;-75
2022/06/05 13:30:28;;;;;;;2.95;2.75;;;;;;;;;;5074130;28;20035;-79
2022/06/05 13:40:13;;;;;;;3.10;2.90;;;;;;;;;;5073439;28;20109;-76
2022/06/05 20:41:27;;;;;;;3.83;3.42;;;;;;;;;;5052092;27;20399;-76
2022/06/05 20:43:54;;;;;;;4.22;3.45;;;;;;;;;;5054712;28;20043;-76
2022/06/05 20:46:23;;;;;;;3.13;2.92;;;;;;;;;;5055070;28;20066;-76
2022/06/05 20:48:56;;;;;;;3.78;3.40;;;;;;;;;;5053529;28;20052;-76
2022/06/05 20:51:23;;;;;;;4.28;3.00;;;;;;;;;;5054510;28;20048;-76
2022/06/05 20:53:50;;;;;;;3.05;2.92;;;;;;;;;;5054634;28;20047;-76
2022/06/05 20:56:25;;;;;;;3.47;3.28;;;;;;;;;;5036577;28;20083;-76
2022/06/05 20:59:04;;;;;;;4.05;3.30;;;;;;;;;;5054566;28;20049;-76
2022/06/05 21:01:34;;;;;;;3.83;3.30;;;;;;;;;;5054447;28;20041;-76
2022/06/05 21:09:29;;;;;;;3.55;3.22;;;;;;;;;;5054475;28;20055;-76
2022/06/05 21:17:26;;;;;;;3.90;3.60;;;;;;;;;;5053977;28;20099;-76
2022/06/05 21:19:52;;;;;;;4.70;4.40;;;;;;;;;;5053960;28;20029;-76
2022/06/05 21:22:18;;;;;;;6.72;4.32;;;;;;;;;;5053848;28;20041;-75
2022/06/05 21:24:48;;;;;;;5.40;4.90;;;;;;;;;;5053848;28;20541;-77
2022/06/05 21:27:14;;;;;;;;;;;;;;;;;;5054523;28;20037;-77
2022/06/05 21:29:42;;;;;;;4.93;4.43;;;;;;;;;;5053744;28;20354;-76
2022/06/05 21:32:26;;;;;;;5.43;4.93;;;;;;;;;;5054040;28;20447;-76
2022/06/05 21:34:53;;;;;;;5.15;4.85;;;;;;;;;;5053732;28;20399;-77
2022/06/05 21:37:18;;;;;;;5.10;4.60;;;;;;;;;;5053863;28;20056;-76
2022/06/05 21:39:44;;;;;;;4.72;4.32;;;;;;;;;;5056965;28;20065;-76
2022/06/05 21:42:11;;;;;;;4.82;4.53;;;;;;;;;;5089796;28;20550;-76
2022/06/05 21:44:37;;;;;;;5.38;4.97;;;;;;;;;;5094229;28;20035;-75
2022/06/05 21:47:15;;;;;;;5.13;4.75;;;;;;;;;;5093761;28;20612;-76
2022/06/05 21:49:45;;;;;;;5.50;4.78;;;;;;;;;;5093971;28;20048;-74
2022/06/05 21:52:16;;;;;;;4.97;4.68;;;;;;;;;;5093883;28;20024;-74
2022/06/05 21:54:54;;;;;;;5.45;4.93;;;;;;;;;;5093770;28;20169;-74
2022/06/05 21:57:22;;;;;;;6.90;5.15;;;;;;;;;;5093899;28;20122;-74
2022/06/05 21:59:47;;;;;;;5.95;5.35;;;;;;;;;;5093516;28;20039;-74
2022/06/05 22:02:12;;;;;;;5.80;5.30;;;;;;;;;;5093598;28;20036;-77
2022/06/05 22:04:38;;;;;;;5.40;5.00;;;;;;;;;;5094274;28;20028;-77
2022/06/05 22:07:07;;;;;;;5.65;5.10;;;;;;;;;;5093955;28;20040;-76
2022/06/05 22:09:33;;;;;;;5.88;5.30;;;;;;;;;;5094045;28;20024;-76
2022/06/05 22:11:58;;;;;;;5.78;5.40;;;;;;;;;;5093667;28;20090;-76
2022/06/05 22:14:25;;;;;;;5.05;4.65;;;;;;;;;;5093991;28;20489;-76
2022/06/05 22:16:52;;;;;;;5.95;5.32;;;;;;;;;;5093532;28;20032;-76
2022/06/05 22:19:18;;;;;;;5.85;5.32;;;;;;;;;;5075429;28;20584;-75
2022/06/05 22:21:46;;;;;;;5.57;4.80;;;;;;;;;;5093474;28;20047;-76
2022/06/05 22:24:12;;;;;;;5.47;5.07;;;;;;;;;;5093562;28;20389;-76
2022/06/05 22:26:38;;;;;;;5.15;4.85;;;;;;;;;;5093738;28;20040;-75
2022/06/05 22:29:03;;;;;;;5.30;5.00;;;;;;;;;;5093347;28;20036;-75
2022/06/05 22:31:29;;;;;;;5.10;4.80;;;;;;;;;;5093505;28;20043;-75
2022/06/05 22:33:55;;;;;;;5.90;5.45;;;;;;;;;;5093664;28;20026;-75
2022/06/05 22:36:20;;;;;;;5.32;4.80;;;;;;;;;;5093459;28;20046;-76
2022/06/05 22:38:50;;;;;;;5.53;5.18;;;;;;;;;;5093527;28;20028;-76
2022/06/05 22:41:17;;;;;;;5.85;5.50;;;;;;;;;;5093182;28;20044;-76
2022/06/05 22:43:43;;;;;;;6.07;5.70;;;;;;;;;;5093326;28;20064;-75
2022/06/05 22:46:08;;;;;;;6.22;5.82;;;;;;;;;;5093429;28;20059;-76
2022/06/05 22:48:34;;;;;;;5.95;5.45;;;;;;;;;;5093178;28;20036;-76
2022/06/05 22:50:59;;;;;;;6.25;5.60;;;;;;;;;;5093267;28;20479;-76
2022/06/05 22:53:26;;;;;;;5.35;5.00;;;;;;;;;;5093669;28;20036;-76
2022/06/05 22:55:51;;;;;;;6.07;5.57;;;;;;;;;;5093267;28;20114;-76
2022/06/05 22:58:17;;;;;;;5.60;5.20;;;;;;;;;;5093263;28;20119;-76
2022/06/05 23:00:47;;;;;;;5.78;5.28;;;;;;;;;;5093343;28;20424;-76
2022/06/05 23:03:14;;;;;;;5.68;5.25;;;;;;;;;;5093108;28;20534;-76
2022/06/05 23:05:40;;;;;;;5.93;5.45;;;;;;;;;;5093231;28;20043;-76
2022/06/05 23:08:06;;;;;;;5.68;5.28;;;;;;;;;;5092970;28;20040;-76
2022/06/05 23:10:31;;;;;;;5.50;5.05;;;;;;;;;;5075525;28;20039;-76
2022/06/05 23:12:56;;;;;;;5.10;4.80;;;;;;;;;;5095921;28;20039;-77
2022/06/05 23:15:22;;;;;;;5.80;5.30;;;;;;;;;;5096784;28;20466;-76
2022/06/05 23:17:48;;;;;;;5.68;5.30;;;;;;;;;;5096825;28;20086;-76
2022/06/05 23:20:13;;;;;;;5.60;5.00;;;;;;;;;;5096720;28;20081;-76
2022/06/05 23:22:39;;;;;;;6.10;5.60;;;;;;;;;;5096520;28;20040;-76
2022/06/05 23:25:04;;;;;;;6.18;5.78;;;;;;;;;;5096379;28;20101;-76
2022/06/05 23:27:30;;;;;;;6.18;5.75;;;;;;;;;;5078613;28;20036;-75
2022/06/05 23:29:55;;;;;;;5.50;5.20;;;;;;;;;;5096449;28;20452;-76
2022/06/05 23:32:20;;;;;;;5.53;5.13;;;;;;;;;;5078080;28;20075;-76
2022/06/05 23:34:46;;;;;;;6.00;5.50;;;;;;;;;;5096303;28;20055;-75
2022/06/05 23:37:13;;;;;;;6.03;5.60;;;;;;;;;;5096221;28;20036;-75
2022/06/05 23:39:38;;;;;;;6.03;5.63;;;;;;;;;;5096203;28;20861;-75
2022/06/05 23:42:05;;;;;;;6.00;5.60;;;;;;;;;;5096128;28;20036;-75
2022/06/05 23:44:30;;;;;;;5.75;5.40;;;;;;;;;;5096172;28;20051;-75
2022/06/05 23:46:56;;;;;;;5.65;5.30;;;;;;;;;;5096096;28;20040;-75
2022/06/05 23:49:26;;;;;;;5.83;5.43;;;;;;;;;;5095903;28;20068;-76
2022/06/05 23:51:52;;;;;;;5.30;4.90;;;;;;;;;;5095909;28;20310;-75
2022/06/05 23:54:18;;;;;;;6.03;5.53;;;;;;;;;;5095973;28;20380;-75
2022/06/05 23:59:28;;;;;;;6.28;5.88;;;;;;;;;;5095769;28;20048;-76
